sensor_id;sensor_type;location;lat;lon;timestamp;temperature;humidity
8633;DHT22;4354;49.832;10.746;2023-08-08T00:01:10;10.80;99.90
8633;DHT22;4354;49.832;10.746;2023-08-08T00:03:37;10.80;99.90
8633;DHT22;4354;49.832;10.746;2023-08-08T00:06:04;10.80;99.90
8633;DHT22;4354;49.832;10.746;2023-08-08T00:08:31;10.80;99.90
8633;DHT22;4354;49.832;10.746;2023-08-08T00:10:58;10.80;99.90
8633;DHT22;4354;49.832;10.746;2023-08-08T00:13:24;10.90;99.90
8633;DHT22;4354;49.832;10.746;2023-08-08T00:15:51;10.90;99.90
8633;DHT22;4354;49.832;10.746;2023-08-08T00:18:18;10.90;99.90
8633;DHT22;4354;49.832;10.746;2023-08-08T00:20:45;10.80;99.90
8633;DHT22;4354;49.832;10.746;2023-08-08T00:23:12;10.80;99.90
8633;DHT22;4354;49.832;10.746;2023-08-08T00:25:39;10.80;99.90
8633;DHT22;4354;49.832;10.746;2023-08-08T00:28:06;10.70;99.90
8633;DHT22;4354;49.832;10.746;2023-08-08T00:30:32;10.70;99.90
8633;DHT22;4354;49.832;10.746;2023-08-08T00:32:59;10.70;99.90
8633;DHT22;4354;49.832;10.746;2023-08-08T00:35:26;10.70;99.90
8633;DHT22;4354;49.832;10.746;2023-08-08T00:37:53;10.70;99.90
8633;DHT22;4354;49.832;10.746;2023-08-08T00:40:19;10.60;99.90
8633;DHT22;4354;49.832;10.746;2023-08-08T00:42:46;10.60;99.90
8633;DHT22;4354;49.832;10.746;2023-08-08T00:45:13;10.70;99.90
8633;DHT22;4354;49.832;10.746;2023-08-08T00:47:40;10.70;99.90
8633;DHT22;4354;49.832;10.746;2023-08-08T00:50:07;10.80;99.90
8633;DHT22;4354;49.832;10.746;2023-08-08T00:52:35;10.90;99.90
8633;DHT22;4354;49.832;10.746;2023-08-08T00:55:03;10.90;99.90
8633;DHT22;4354;49.832;10.746;2023-08-08T00:57:30;10.80;99.90
8633;DHT22;4354;49.832;10.746;2023-08-08T00:59:57;10.90;99.90
8633;DHT22;4354;49.832;10.746;2023-08-08T01:02:23;10.90;99.90
8633;DHT22;4354;49.832;10.746;2023-08-08T01:04:50;10.90;99.90
8633;DHT22;4354;49.832;10.746;2023-08-08T01:07:30;10.90;99.90
8633;DHT22;4354;49.832;10.746;2023-08-08T01:10:17;10.90;99.90
8633;DHT22;4354;49.832;10.746;2023-08-08T01:12:53;10.90;99.90
8633;DHT22;4354;49.832;10.746;2023-08-08T01:15:22;10.90;99.90
8633;DHT22;4354;49.832;10.746;2023-08-08T01:17:50;10.90;99.90
8633;DHT22;4354;49.832;10.746;2023-08-08T01:20:18;10.90;99.90
8633;DHT22;4354;49.832;10.746;2023-08-08T01:25:26;10.80;99.90
8633;DHT22;4354;49.832;10.746;2023-08-08T01:27:53;10.80;99.90
8633;DHT22;4354;49.832;10.746;2023-08-08T01:30:20;10.70;99.90
8633;DHT22;4354;49.832;10.746;2023-08-08T01:32:47;10.60;99.90
8633;DHT22;4354;49.832;10.746;2023-08-08T01:35:14;10.50;99.90
8633;DHT22;4354;49.832;10.746;2023-08-08T01:37:50;10.40;99.90
8633;DHT22;4354;49.832;10.746;2023-08-08T01:40:19;10.30;99.90
8633;DHT22;4354;49.832;10.746;2023-08-08T01:42:48;10.30;99.90
8633;DHT22;4354;49.832;10.746;2023-08-08T01:45:15;10.20;99.90
8633;DHT22;4354;49.832;10.746;2023-08-08T01:47:43;10.20;99.90
8633;DHT22;4354;49.832;10.746;2023-08-08T01:50:09;10.20;99.90
8633;DHT22;4354;49.832;10.746;2023-08-08T01:52:36;10.20;99.90
8633;DHT22;4354;49.832;10.746;2023-08-08T01:55:03;10.20;99.90
8633;DHT22;4354;49.832;10.746;2023-08-08T01:57:30;10.20;99.90
8633;DHT22;4354;49.832;10.746;2023-08-08T01:59:57;10.30;99.90
8633;DHT22;4354;49.832;10.746;2023-08-08T02:02:24;10.30;99.90
8633;DHT22;4354;49.832;10.746;2023-08-08T02:04:50;10.40;99.90
8633;DHT22;4354;49.832;10.746;2023-08-08T02:07:17;10.40;99.90
8633;DHT22;4354;49.832;10.746;2023-08-08T02:09:44;10.40;99.90
8633;DHT22;4354;49.832;10.746;2023-08-08T02:12:12;10.40;99.90
8633;DHT22;4354;49.832;10.746;2023-08-08T02:14:39;10.50;99.90
8633;DHT22;4354;49.832;10.746;2023-08-08T02:17:06;10.40;99.90
8633;DHT22;4354;49.832;10.746;2023-08-08T02:19:32;10.50;99.90
8633;DHT22;4354;49.832;10.746;2023-08-08T02:21:59;10.50;99.90
8633;DHT22;4354;49.832;10.746;2023-08-08T02:24:27;10.40;99.90
8633;DHT22;4354;49.832;10.746;2023-08-08T02:26:53;10.40;99.90
8633;DHT22;4354;49.832;10.746;2023-08-08T02:29:20;10.30;99.90
8633;DHT22;4354;49.832;10.746;2023-08-08T02:31:47;10.30;99.90
8633;DHT22;4354;49.832;10.746;2023-08-08T02:34:14;10.30;99.90
8633;DHT22;4354;49.832;10.746;2023-08-08T02:36:40;10.30;99.90
8633;DHT22;4354;49.832;10.746;2023-08-08T02:39:07;10.30;99.90
8633;DHT22;4354;49.832;10.746;2023-08-08T02:41:34;10.20;99.90
8633;DHT22;4354;49.832;10.746;2023-08-08T02:44:01;10.20;99.90
8633;DHT22;4354;49.832;10.746;2023-08-08T02:46:27;10.20;99.90
8633;DHT22;4354;49.832;10.746;2023-08-08T02:48:54;10.10;99.90
8633;DHT22;4354;49.832;10.746;2023-08-08T02:51:21;10.00;99.90
8633;DHT22;4354;49.832;10.746;2023-08-08T02:53:48;10.00;99.90
8633;DHT22;4354;49.832;10.746;2023-08-08T02:56:14;9.90;99.90
8633;DHT22;4354;49.832;10.746;2023-08-08T02:58:41;9.90;99.90
8633;DHT22;4354;49.832;10.746;2023-08-08T03:01:08;9.80;99.90
8633;DHT22;4354;49.832;10.746;2023-08-08T03:03:35;9.80;99.90
8633;DHT22;4354;49.832;10.746;2023-08-08T03:06:03;9.70;99.90
8633;DHT22;4354;49.832;10.746;2023-08-08T03:08:30;9.70;99.90
8633;DHT22;4354;49.832;10.746;2023-08-08T03:10:56;9.70;99.90
8633;DHT22;4354;49.832;10.746;2023-08-08T03:13:23;9.60;99.90
8633;DHT22;4354;49.832;10.746;2023-08-08T03:15:50;9.60;99.90
8633;DHT22;4354;49.832;10.746;2023-08-08T03:18:17;9.60;99.90
8633;DHT22;4354;49.832;10.746;2023-08-08T03:20:43;9.60;99.90
8633;DHT22;4354;49.832;10.746;2023-08-08T03:23:10;9.70;99.90
8633;DHT22;4354;49.832;10.746;2023-08-08T03:25:37;9.60;99.90
8633;DHT22;4354;49.832;10.746;2023-08-08T03:28:04;9.70;99.90
8633;DHT22;4354;49.832;10.746;2023-08-08T03:30:31;9.60;99.90
8633;DHT22;4354;49.832;10.746;2023-08-08T03:32:57;9.60;99.90
8633;DHT22;4354;49.832;10.746;2023-08-08T03:35:24;9.70;99.90
8633;DHT22;4354;49.832;10.746;2023-08-08T03:37:51;9.70;99.90
8633;DHT22;4354;49.832;10.746;2023-08-08T03:40:18;9.80;99.90
8633;DHT22;4354;49.832;10.746;2023-08-08T03:42:45;9.80;99.90
8633;DHT22;4354;49.832;10.746;2023-08-08T03:45:12;9.90;99.90
8633;DHT22;4354;49.832;10.746;2023-08-08T03:47:38;9.90;99.90
8633;DHT22;4354;49.832;10.746;2023-08-08T03:50:07;9.90;99.90
8633;DHT22;4354;49.832;10.746;2023-08-08T03:52:33;9.90;99.90
8633;DHT22;4354;49.832;10.746;2023-08-08T03:55:02;9.90;99.90
8633;DHT22;4354;49.832;10.746;2023-08-08T03:57:30;9.90;99.90
8633;DHT22;4354;49.832;10.746;2023-08-08T03:59:57;9.90;99.90
8633;DHT22;4354;49.832;10.746;2023-08-08T04:02:24;10.00;99.90
8633;DHT22;4354;49.832;10.746;2023-08-08T04:04:51;9.90;99.90
8633;DHT22;4354;49.832;10.746;2023-08-08T04:07:18;9.90;99.90
8633;DHT22;4354;49.832;10.746;2023-08-08T04:09:45;9.90;99.90
8633;DHT22;4354;49.832;10.746;2023-08-08T04:12:12;9.90;99.90
8633;DHT22;4354;49.832;10.746;2023-08-08T04:14:38;9.90;99.90
8633;DHT22;4354;49.832;10.746;2023-08-08T04:17:05;10.00;99.90
8633;DHT22;4354;49.832;10.746;2023-08-08T04:19:32;10.00;99.90
8633;DHT22;4354;49.832;10.746;2023-08-08T04:21:59;10.10;99.90
8633;DHT22;4354;49.832;10.746;2023-08-08T04:24:26;10.10;99.90
8633;DHT22;4354;49.832;10.746;2023-08-08T04:26:53;10.10;99.90
8633;DHT22;4354;49.832;10.746;2023-08-08T04:29:19;10.20;99.90
8633;DHT22;4354;49.832;10.746;2023-08-08T04:31:46;10.20;99.90
8633;DHT22;4354;49.832;10.746;2023-08-08T04:34:13;10.20;99.90
8633;DHT22;4354;49.832;10.746;2023-08-08T04:36:40;10.30;99.90
8633;DHT22;4354;49.832;10.746;2023-08-08T04:39:07;10.30;99.90
8633;DHT22;4354;49.832;10.746;2023-08-08T04:41:33;10.40;99.90
8633;DHT22;4354;49.832;10.746;2023-08-08T04:44:00;10.40;99.90
8633;DHT22;4354;49.832;10.746;2023-08-08T04:46:27;10.50;99.90
8633;DHT22;4354;49.832;10.746;2023-08-08T04:48:54;10.50;99.90
8633;DHT22;4354;49.832;10.746;2023-08-08T04:51:21;10.60;99.90
8633;DHT22;4354;49.832;10.746;2023-08-08T04:53:48;10.60;99.90
8633;DHT22;4354;49.832;10.746;2023-08-08T04:56:15;10.60;99.90
8633;DHT22;4354;49.832;10.746;2023-08-08T04:58:42;10.70;99.90
8633;DHT22;4354;49.832;10.746;2023-08-08T05:01:08;10.80;99.90
8633;DHT22;4354;49.832;10.746;2023-08-08T05:03:39;10.80;99.90
8633;DHT22;4354;49.832;10.746;2023-08-08T05:06:06;10.90;99.90
8633;DHT22;4354;49.832;10.746;2023-08-08T05:08:33;11.00;99.90
8633;DHT22;4354;49.832;10.746;2023-08-08T05:11:00;11.10;99.90
8633;DHT22;4354;49.832;10.746;2023-08-08T05:13:27;11.20;99.90
8633;DHT22;4354;49.832;10.746;2023-08-08T05:15:54;11.20;99.90
8633;DHT22;4354;49.832;10.746;2023-08-08T05:18:20;11.10;99.90
8633;DHT22;4354;49.832;10.746;2023-08-08T05:20:47;11.20;99.90
8633;DHT22;4354;49.832;10.746;2023-08-08T05:23:14;11.30;99.90
8633;DHT22;4354;49.832;10.746;2023-08-08T05:25:42;11.40;99.90
8633;DHT22;4354;49.832;10.746;2023-08-08T05:28:08;11.50;99.90
8633;DHT22;4354;49.832;10.746;2023-08-08T05:30:35;11.40;99.90
8633;DHT22;4354;49.832;10.746;2023-08-08T05:33:02;11.50;99.90
8633;DHT22;4354;49.832;10.746;2023-08-08T05:35:30;11.50;99.90
8633;DHT22;4354;49.832;10.746;2023-08-08T05:37:57;11.50;99.90
8633;DHT22;4354;49.832;10.746;2023-08-08T05:40:23;11.50;99.90
8633;DHT22;4354;49.832;10.746;2023-08-08T05:42:50;11.60;99.90
8633;DHT22;4354;49.832;10.746;2023-08-08T05:45:17;11.60;99.90
8633;DHT22;4354;49.832;10.746;2023-08-08T05:47:44;11.60;99.90
8633;DHT22;4354;49.832;10.746;2023-08-08T05:50:11;11.70;99.90
8633;DHT22;4354;49.832;10.746;2023-08-08T05:52:37;11.80;99.90
8633;DHT22;4354;49.832;10.746;2023-08-08T05:55:05;11.80;99.90
8633;DHT22;4354;49.832;10.746;2023-08-08T05:57:32;11.90;99.90
8633;DHT22;4354;49.832;10.746;2023-08-08T05:59:58;12.00;99.90
8633;DHT22;4354;49.832;10.746;2023-08-08T06:02:28;12.10;99.90
8633;DHT22;4354;49.832;10.746;2023-08-08T06:04:55;12.20;99.90
8633;DHT22;4354;49.832;10.746;2023-08-08T06:07:22;12.20;99.90
8633;DHT22;4354;49.832;10.746;2023-08-08T06:09:49;12.30;99.90
8633;DHT22;4354;49.832;10.746;2023-08-08T06:12:15;12.50;99.90
8633;DHT22;4354;49.832;10.746;2023-08-08T06:14:42;12.50;99.90
8633;DHT22;4354;49.832;10.746;2023-08-08T06:17:09;12.60;99.90
8633;DHT22;4354;49.832;10.746;2023-08-08T06:19:36;12.70;99.90
8633;DHT22;4354;49.832;10.746;2023-08-08T06:22:03;12.70;99.90
8633;DHT22;4354;49.832;10.746;2023-08-08T06:24:30;12.80;99.90
8633;DHT22;4354;49.832;10.746;2023-08-08T06:26:57;13.00;99.90
8633;DHT22;4354;49.832;10.746;2023-08-08T06:29:24;13.10;99.90
8633;DHT22;4354;49.832;10.746;2023-08-08T06:31:51;13.20;99.90
8633;DHT22;4354;49.832;10.746;2023-08-08T06:34:18;13.30;99.90
8633;DHT22;4354;49.832;10.746;2023-08-08T06:36:44;13.40;99.90
8633;DHT22;4354;49.832;10.746;2023-08-08T06:39:13;13.50;99.90
8633;DHT22;4354;49.832;10.746;2023-08-08T06:41:40;13.60;99.90
8633;DHT22;4354;49.832;10.746;2023-08-08T06:44:07;13.70;95.50
8633;DHT22;4354;49.832;10.746;2023-08-08T06:46:35;13.80;94.80
8633;DHT22;4354;49.832;10.746;2023-08-08T06:49:01;13.90;77.00
8633;DHT22;4354;49.832;10.746;2023-08-08T06:51:28;14.00;69.30
8633;DHT22;4354;49.832;10.746;2023-08-08T06:53:55;14.10;72.90
8633;DHT22;4354;49.832;10.746;2023-08-08T06:56:22;14.20;55.70
8633;DHT22;4354;49.832;10.746;2023-08-08T06:58:48;14.30;34.10
8633;DHT22;4354;49.832;10.746;2023-08-08T07:01:15;14.40;6.30
8633;DHT22;4354;49.832;10.746;2023-08-08T07:03:42;14.60;2.20
8633;DHT22;4354;49.832;10.746;2023-08-08T07:06:10;14.60;1.00
8633;DHT22;4354;49.832;10.746;2023-08-08T07:08:37;14.70;1.00
8633;DHT22;4354;49.832;10.746;2023-08-08T07:11:05;14.90;1.00
8633;DHT22;4354;49.832;10.746;2023-08-08T07:13:33;15.00;1.00
8633;DHT22;4354;49.832;10.746;2023-08-08T07:16:00;15.20;1.00
8633;DHT22;4354;49.832;10.746;2023-08-08T07:18:27;15.40;1.00
8633;DHT22;4354;49.832;10.746;2023-08-08T07:20:54;15.50;1.00
8633;DHT22;4354;49.832;10.746;2023-08-08T07:23:23;15.60;1.00
8633;DHT22;4354;49.832;10.746;2023-08-08T07:25:50;15.60;1.00
8633;DHT22;4354;49.832;10.746;2023-08-08T07:28:17;15.70;1.00
8633;DHT22;4354;49.832;10.746;2023-08-08T07:30:44;15.90;1.00
8633;DHT22;4354;49.832;10.746;2023-08-08T07:33:11;16.40;77.30
8633;DHT22;4354;49.832;10.746;2023-08-08T07:35:38;17.90;1.00
8633;DHT22;4354;49.832;10.746;2023-08-08T07:38:05;19.90;1.00
8633;DHT22;4354;49.832;10.746;2023-08-08T07:40:32;21.40;1.00
8633;DHT22;4354;49.832;10.746;2023-08-08T07:42:59;22.80;99.90
8633;DHT22;4354;49.832;10.746;2023-08-08T07:45:25;23.70;99.90
8633;DHT22;4354;49.832;10.746;2023-08-08T07:47:52;24.70;99.90
8633;DHT22;4354;49.832;10.746;2023-08-08T07:50:19;25.90;99.90
8633;DHT22;4354;49.832;10.746;2023-08-08T07:52:46;26.90;99.90
8633;DHT22;4354;49.832;10.746;2023-08-08T07:55:12;27.60;99.90
8633;DHT22;4354;49.832;10.746;2023-08-08T07:57:39;27.60;99.90
8633;DHT22;4354;49.832;10.746;2023-08-08T08:00:06;27.10;99.90
8633;DHT22;4354;49.832;10.746;2023-08-08T08:02:42;27.20;99.90
8633;DHT22;4354;49.832;10.746;2023-08-08T08:05:09;28.10;99.90
8633;DHT22;4354;49.832;10.746;2023-08-08T08:07:37;28.60;99.90
8633;DHT22;4354;49.832;10.746;2023-08-08T08:10:06;29.00;99.90
8633;DHT22;4354;49.832;10.746;2023-08-08T08:12:33;29.20;99.90
8633;DHT22;4354;49.832;10.746;2023-08-08T08:15:00;29.20;99.90
8633;DHT22;4354;49.832;10.746;2023-08-08T08:17:27;29.70;99.90
8633;DHT22;4354;49.832;10.746;2023-08-08T08:19:54;29.60;99.90
8633;DHT22;4354;49.832;10.746;2023-08-08T08:22:21;27.90;99.90
8633;DHT22;4354;49.832;10.746;2023-08-08T08:24:48;26.20;99.90
8633;DHT22;4354;49.832;10.746;2023-08-08T08:27:15;25.30;99.90
8633;DHT22;4354;49.832;10.746;2023-08-08T08:29:42;24.20;99.90
8633;DHT22;4354;49.832;10.746;2023-08-08T08:32:08;23.40;99.90
8633;DHT22;4354;49.832;10.746;2023-08-08T08:34:35;23.10;99.90
8633;DHT22;4354;49.832;10.746;2023-08-08T08:37:03;24.10;99.90
8633;DHT22;4354;49.832;10.746;2023-08-08T08:39:30;24.20;99.90
8633;DHT22;4354;49.832;10.746;2023-08-08T08:42:00;25.50;99.90
8633;DHT22;4354;49.832;10.746;2023-08-08T08:44:31;27.30;99.90
8633;DHT22;4354;49.832;10.746;2023-08-08T08:47:02;28.10;99.90
8633;DHT22;4354;49.832;10.746;2023-08-08T08:49:32;26.90;95.50
8633;DHT22;4354;49.832;10.746;2023-08-08T08:52:01;25.30;95.50
8633;DHT22;4354;49.832;10.746;2023-08-08T08:54:32;24.50;96.70
8633;DHT22;4354;49.832;10.746;2023-08-08T08:56:59;24.00;97.10
8633;DHT22;4354;49.832;10.746;2023-08-08T08:59:26;23.60;98.90
8633;DHT22;4354;49.832;10.746;2023-08-08T09:01:53;22.90;98.10
8633;DHT22;4354;49.832;10.746;2023-08-08T09:04:21;22.70;97.80
8633;DHT22;4354;49.832;10.746;2023-08-08T09:06:50;22.90;99.20
8633;DHT22;4354;49.832;10.746;2023-08-08T09:09:17;23.40;99.10
8633;DHT22;4354;49.832;10.746;2023-08-08T09:11:52;23.60;97.30
8633;DHT22;4354;49.832;10.746;2023-08-08T09:14:24;24.20;97.50
8633;DHT22;4354;49.832;10.746;2023-08-08T09:16:52;24.10;95.70
8633;DHT22;4354;49.832;10.746;2023-08-08T09:19:20;25.30;97.80
8633;DHT22;4354;49.832;10.746;2023-08-08T09:21:48;26.10;92.60
8633;DHT22;4354;49.832;10.746;2023-08-08T09:24:15;24.80;89.70
8633;DHT22;4354;49.832;10.746;2023-08-08T09:26:44;23.70;91.60
8633;DHT22;4354;49.832;10.746;2023-08-08T09:29:13;22.90;91.20
8633;DHT22;4354;49.832;10.746;2023-08-08T09:31:41;22.80;93.40
8633;DHT22;4354;49.832;10.746;2023-08-08T09:34:08;22.70;93.10
8633;DHT22;4354;49.832;10.746;2023-08-08T09:36:35;22.90;93.30
8633;DHT22;4354;49.832;10.746;2023-08-08T09:39:03;23.10;93.50
8633;DHT22;4354;49.832;10.746;2023-08-08T09:41:30;23.10;91.60
8633;DHT22;4354;49.832;10.746;2023-08-08T09:43:59;23.70;91.80
8633;DHT22;4354;49.832;10.746;2023-08-08T09:46:26;24.50;92.50
8633;DHT22;4354;49.832;10.746;2023-08-08T09:48:53;26.40;90.20
8633;DHT22;4354;49.832;10.746;2023-08-08T09:51:20;28.10;83.80
8633;DHT22;4354;49.832;10.746;2023-08-08T09:53:48;28.20;73.70
8633;DHT22;4354;49.832;10.746;2023-08-08T09:56:15;28.50;93.90
8633;DHT22;4354;49.832;10.746;2023-08-08T09:58:43;28.20;64.70
8633;DHT22;4354;49.832;10.746;2023-08-08T10:01:10;27.80;60.10
8633;DHT22;4354;49.832;10.746;2023-08-08T10:03:41;28.20;60.80
8633;DHT22;4354;49.832;10.746;2023-08-08T10:06:10;29.00;57.60
8633;DHT22;4354;49.832;10.746;2023-08-08T10:08:37;28.30;56.60
8633;DHT22;4354;49.832;10.746;2023-08-08T10:11:05;27.80;54.60
8633;DHT22;4354;49.832;10.746;2023-08-08T10:13:35;26.40;55.70
8633;DHT22;4354;49.832;10.746;2023-08-08T10:16:08;25.60;56.10
8633;DHT22;4354;49.832;10.746;2023-08-08T10:18:35;26.00;55.60
8633;DHT22;4354;49.832;10.746;2023-08-08T10:21:04;27.60;56.80
8633;DHT22;4354;49.832;10.746;2023-08-08T10:23:38;28.90;52.00
8633;DHT22;4354;49.832;10.746;2023-08-08T10:26:16;29.00;44.30
8633;DHT22;4354;49.832;10.746;2023-08-08T10:28:54;27.70;44.30
8633;DHT22;4354;49.832;10.746;2023-08-08T10:31:25;27.00;47.00
8633;DHT22;4354;49.832;10.746;2023-08-08T10:34:05;27.00;47.70
8633;DHT22;4354;49.832;10.746;2023-08-08T10:36:51;27.30;45.40
8633;DHT22;4354;49.832;10.746;2023-08-08T10:39:21;28.00;43.30
8633;DHT22;4354;49.832;10.746;2023-08-08T10:41:49;28.70;38.90
8633;DHT22;4354;49.832;10.746;2023-08-08T10:44:24;29.40;35.50
8633;DHT22;4354;49.832;10.746;2023-08-08T10:46:52;28.70;33.90
8633;DHT22;4354;49.832;10.746;2023-08-08T10:49:20;28.10;34.30
8633;DHT22;4354;49.832;10.746;2023-08-08T10:51:49;27.80;31.10
8633;DHT22;4354;49.832;10.746;2023-08-08T10:54:23;27.20;32.10
8633;DHT22;4354;49.832;10.746;2023-08-08T10:56:55;26.80;34.60
8633;DHT22;4354;49.832;10.746;2023-08-08T10:59:27;26.70;35.60
8633;DHT22;4354;49.832;10.746;2023-08-08T11:01:56;27.40;32.80
8633;DHT22;4354;49.832;10.746;2023-08-08T11:04:25;27.30;30.50
8633;DHT22;4354;49.832;10.746;2023-08-08T11:06:54;27.60;30.00
8633;DHT22;4354;49.832;10.746;2023-08-08T11:09:22;27.20;29.70
8633;DHT22;4354;49.832;10.746;2023-08-08T11:11:49;26.90;31.40
8633;DHT22;4354;49.832;10.746;2023-08-08T11:14:18;27.20;28.50
8633;DHT22;4354;49.832;10.746;2023-08-08T11:16:46;27.40;26.80
8633;DHT22;4354;49.832;10.746;2023-08-08T11:19:13;27.40;27.20
8633;DHT22;4354;49.832;10.746;2023-08-08T11:21:43;27.10;25.70
8633;DHT22;4354;49.832;10.746;2023-08-08T11:24:12;26.40;25.60
8633;DHT22;4354;49.832;10.746;2023-08-08T11:26:42;26.10;26.30
8633;DHT22;4354;49.832;10.746;2023-08-08T11:29:12;25.90;27.50
8633;DHT22;4354;49.832;10.746;2023-08-08T11:31:39;25.30;25.80
8633;DHT22;4354;49.832;10.746;2023-08-08T11:34:06;24.90;26.60
8633;DHT22;4354;49.832;10.746;2023-08-08T11:36:35;24.90;28.90
8633;DHT22;4354;49.832;10.746;2023-08-08T11:39:03;24.70;27.40
8633;DHT22;4354;49.832;10.746;2023-08-08T11:41:36;24.60;28.50
8633;DHT22;4354;49.832;10.746;2023-08-08T11:44:04;24.70;27.00
8633;DHT22;4354;49.832;10.746;2023-08-08T11:46:31;24.50;27.10
8633;DHT22;4354;49.832;10.746;2023-08-08T11:49:05;24.40;25.80
8633;DHT22;4354;49.832;10.746;2023-08-08T11:51:34;24.20;27.60
8633;DHT22;4354;49.832;10.746;2023-08-08T11:54:02;24.10;26.20
8633;DHT22;4354;49.832;10.746;2023-08-08T11:56:33;24.20;29.20
8633;DHT22;4354;49.832;10.746;2023-08-08T11:59:00;24.40;27.10
8633;DHT22;4354;49.832;10.746;2023-08-08T12:01:27;24.70;25.40
8633;DHT22;4354;49.832;10.746;2023-08-08T12:03:55;25.30;25.20
8633;DHT22;4354;49.832;10.746;2023-08-08T12:06:22;25.00;23.10
8633;DHT22;4354;49.832;10.746;2023-08-08T12:08:55;25.00;24.50
8633;DHT22;4354;49.832;10.746;2023-08-08T12:11:21;25.00;22.60
8633;DHT22;4354;49.832;10.746;2023-08-08T12:13:59;25.30;24.30
8633;DHT22;4354;49.832;10.746;2023-08-08T12:16:30;25.20;23.30
8633;DHT22;4354;49.832;10.746;2023-08-08T12:19:08;25.20;22.90
8633;DHT22;4354;49.832;10.746;2023-08-08T12:21:38;25.20;22.00
8633;DHT22;4354;49.832;10.746;2023-08-08T12:24:05;24.80;21.70
8633;DHT22;4354;49.832;10.746;2023-08-08T12:26:32;24.70;21.10
8633;DHT22;4354;49.832;10.746;2023-08-08T12:28:58;24.70;22.60
8633;DHT22;4354;49.832;10.746;2023-08-08T12:31:25;24.80;22.40
8633;DHT22;4354;49.832;10.746;2023-08-08T12:33:52;25.30;21.60
8633;DHT22;4354;49.832;10.746;2023-08-08T12:36:21;25.80;20.00
8633;DHT22;4354;49.832;10.746;2023-08-08T12:38:47;25.70;19.00
8633;DHT22;4354;49.832;10.746;2023-08-08T12:41:14;26.00;19.40
8633;DHT22;4354;49.832;10.746;2023-08-08T12:43:41;26.40;16.10
8633;DHT22;4354;49.832;10.746;2023-08-08T12:46:08;26.20;15.80
8633;DHT22;4354;49.832;10.746;2023-08-08T12:48:35;25.60;16.30
8633;DHT22;4354;49.832;10.746;2023-08-08T12:51:02;25.10;17.00
8633;DHT22;4354;49.832;10.746;2023-08-08T12:53:30;25.00;17.50
8633;DHT22;4354;49.832;10.746;2023-08-08T12:55:57;25.10;16.70
8633;DHT22;4354;49.832;10.746;2023-08-08T12:58:24;24.80;16.90
8633;DHT22;4354;49.832;10.746;2023-08-08T13:00:52;24.10;15.20
8633;DHT22;4354;49.832;10.746;2023-08-08T13:03:19;24.00;17.90
8633;DHT22;4354;49.832;10.746;2023-08-08T13:05:47;24.20;17.60
8633;DHT22;4354;49.832;10.746;2023-08-08T13:08:14;23.80;17.60
8633;DHT22;4354;49.832;10.746;2023-08-08T13:10:41;23.60;17.60
8633;DHT22;4354;49.832;10.746;2023-08-08T13:13:08;23.50;19.30
8633;DHT22;4354;49.832;10.746;2023-08-08T13:15:35;23.70;19.80
8633;DHT22;4354;49.832;10.746;2023-08-08T13:18:02;23.70;18.80
8633;DHT22;4354;49.832;10.746;2023-08-08T13:20:29;23.60;17.90
8633;DHT22;4354;49.832;10.746;2023-08-08T13:22:56;23.30;18.60
8633;DHT22;4354;49.832;10.746;2023-08-08T13:25:23;23.60;20.50
8633;DHT22;4354;49.832;10.746;2023-08-08T13:27:50;23.70;19.50
8633;DHT22;4354;49.832;10.746;2023-08-08T13:30:17;23.40;18.70
8633;DHT22;4354;49.832;10.746;2023-08-08T13:32:45;23.30;42.20
8633;DHT22;4354;49.832;10.746;2023-08-08T13:35:12;23.40;41.60
8633;DHT22;4354;49.832;10.746;2023-08-08T13:37:39;23.40;19.80
8633;DHT22;4354;49.832;10.746;2023-08-08T13:40:06;23.40;18.90
8633;DHT22;4354;49.832;10.746;2023-08-08T13:42:33;23.40;19.20
8633;DHT22;4354;49.832;10.746;2023-08-08T13:45:00;23.60;17.10
8633;DHT22;4354;49.832;10.746;2023-08-08T13:47:27;23.60;18.30
8633;DHT22;4354;49.832;10.746;2023-08-08T13:49:54;23.60;19.70
8633;DHT22;4354;49.832;10.746;2023-08-08T13:52:22;23.60;16.40
8633;DHT22;4354;49.832;10.746;2023-08-08T13:54:48;23.30;15.70
8633;DHT22;4354;49.832;10.746;2023-08-08T13:57:15;23.30;15.50
8633;DHT22;4354;49.832;10.746;2023-08-08T13:59:43;23.00;15.70
8633;DHT22;4354;49.832;10.746;2023-08-08T14:02:09;23.00;16.60
8633;DHT22;4354;49.832;10.746;2023-08-08T14:04:36;23.30;16.20
8633;DHT22;4354;49.832;10.746;2023-08-08T14:07:03;23.20;15.20
8633;DHT22;4354;49.832;10.746;2023-08-08T14:09:30;23.20;16.60
8633;DHT22;4354;49.832;10.746;2023-08-08T14:11:56;23.20;16.70
8633;DHT22;4354;49.832;10.746;2023-08-08T14:14:25;23.00;16.80
8633;DHT22;4354;49.832;10.746;2023-08-08T14:16:52;22.90;17.80
8633;DHT22;4354;49.832;10.746;2023-08-08T14:19:21;22.50;16.40
8633;DHT22;4354;49.832;10.746;2023-08-08T14:21:49;22.30;17.40
8633;DHT22;4354;49.832;10.746;2023-08-08T14:24:16;22.20;20.50
8633;DHT22;4354;49.832;10.746;2023-08-08T14:26:44;22.30;19.90
8633;DHT22;4354;49.832;10.746;2023-08-08T14:29:13;22.40;19.70
8633;DHT22;4354;49.832;10.746;2023-08-08T14:31:40;22.40;18.50
8633;DHT22;4354;49.832;10.746;2023-08-08T14:34:31;22.40;18.80
8633;DHT22;4354;49.832;10.746;2023-08-08T14:36:59;22.40;20.00
8633;DHT22;4354;49.832;10.746;2023-08-08T14:39:27;22.20;18.70
8633;DHT22;4354;49.832;10.746;2023-08-08T14:41:57;22.10;19.10
8633;DHT22;4354;49.832;10.746;2023-08-08T14:44:25;21.80;18.40
8633;DHT22;4354;49.832;10.746;2023-08-08T14:46:51;21.70;16.70
8633;DHT22;4354;49.832;10.746;2023-08-08T14:49:18;21.50;19.20
8633;DHT22;4354;49.832;10.746;2023-08-08T14:51:45;21.30;18.80
8633;DHT22;4354;49.832;10.746;2023-08-08T14:54:12;21.30;19.60
8633;DHT22;4354;49.832;10.746;2023-08-08T14:56:39;21.30;20.60
8633;DHT22;4354;49.832;10.746;2023-08-08T14:59:06;21.50;20.50
8633;DHT22;4354;49.832;10.746;2023-08-08T15:01:33;21.50;17.90
8633;DHT22;4354;49.832;10.746;2023-08-08T15:04:00;21.40;19.10
8633;DHT22;4354;49.832;10.746;2023-08-08T15:06:27;21.30;21.90
8633;DHT22;4354;49.832;10.746;2023-08-08T15:08:54;21.30;20.20
8633;DHT22;4354;49.832;10.746;2023-08-08T15:11:21;21.10;20.10
8633;DHT22;4354;49.832;10.746;2023-08-08T15:13:47;21.00;21.20
8633;DHT22;4354;49.832;10.746;2023-08-08T15:16:14;20.70;22.60
8633;DHT22;4354;49.832;10.746;2023-08-08T15:18:42;20.50;22.20
8633;DHT22;4354;49.832;10.746;2023-08-08T15:21:08;20.30;23.10
8633;DHT22;4354;49.832;10.746;2023-08-08T15:23:35;20.10;23.70
8633;DHT22;4354;49.832;10.746;2023-08-08T15:26:02;20.10;25.00
8633;DHT22;4354;49.832;10.746;2023-08-08T15:28:29;20.10;25.10
8633;DHT22;4354;49.832;10.746;2023-08-08T15:30:55;20.10;25.70
8633;DHT22;4354;49.832;10.746;2023-08-08T15:33:22;20.10;26.20
8633;DHT22;4354;49.832;10.746;2023-08-08T15:35:49;20.10;25.10
8633;DHT22;4354;49.832;10.746;2023-08-08T15:38:16;20.10;25.70
8633;DHT22;4354;49.832;10.746;2023-08-08T15:40:43;20.00;26.00
8633;DHT22;4354;49.832;10.746;2023-08-08T15:43:10;20.00;29.10
8633;DHT22;4354;49.832;10.746;2023-08-08T15:45:37;19.90;28.50
8633;DHT22;4354;49.832;10.746;2023-08-08T15:48:04;19.80;31.80
8633;DHT22;4354;49.832;10.746;2023-08-08T15:50:31;19.80;40.60
8633;DHT22;4354;49.832;10.746;2023-08-08T15:52:58;19.90;46.80